sensor_id;sensor_type;location;lat;lon;timestamp;temperature;humidity
52709;DHT22;38606;52.986;6.980;2023-03-03T00:00:39;2.10;99.90
52709;DHT22;38606;52.986;6.980;2023-03-03T00:03:06;1.70;99.90
52709;DHT22;38606;52.986;6.980;2023-03-03T00:05:32;1.60;99.90
52709;DHT22;38606;52.986;6.980;2023-03-03T00:07:58;1.90;99.90
52709;DHT22;38606;52.986;6.980;2023-03-03T00:10:24;2.00;99.90
52709;DHT22;38606;52.986;6.980;2023-03-03T00:12:50;1.80;99.90
52709;DHT22;38606;52.986;6.980;2023-03-03T00:15:17;2.50;99.90
52709;DHT22;38606;52.986;6.980;2023-03-03T00:17:43;1.60;99.90
52709;DHT22;38606;52.986;6.980;2023-03-03T00:22:52;1.30;99.90
52709;DHT22;38606;52.986;6.980;2023-03-03T00:27:44;2.20;99.90
52709;DHT22;38606;52.986;6.980;2023-03-03T00:30:16;2.70;99.90
52709;DHT22;38606;52.986;6.980;2023-03-03T00:32:43;1.40;99.90
52709;DHT22;38606;52.986;6.980;2023-03-03T00:37:56;1.80;99.90
52709;DHT22;38606;52.986;6.980;2023-03-03T00:40:23;1.60;99.90
52709;DHT22;38606;52.986;6.980;2023-03-03T00:42:50;1.60;99.90
52709;DHT22;38606;52.986;6.980;2023-03-03T00:45:26;1.90;99.90
52709;DHT22;38606;52.986;6.980;2023-03-03T00:47:52;1.60;99.90
52709;DHT22;38606;52.986;6.980;2023-03-03T00:55:19;2.60;99.90
52709;DHT22;38606;52.986;6.980;2023-03-03T00:57:44;1.60;99.90
52709;DHT22;38606;52.986;6.980;2023-03-03T01:00:10;1.60;99.90
52709;DHT22;38606;52.986;6.980;2023-03-03T01:02:37;1.40;99.90
52709;DHT22;38606;52.986;6.980;2023-03-03T01:05:02;1.60;99.90
52709;DHT22;38606;52.986;6.980;2023-03-03T01:07:28;1.60;99.90
52709;DHT22;38606;52.986;6.980;2023-03-03T01:09:53;2.30;99.90
52709;DHT22;38606;52.986;6.980;2023-03-03T01:12:19;1.70;99.90
52709;DHT22;38606;52.986;6.980;2023-03-03T01:14:44;1.90;99.90
52709;DHT22;38606;52.986;6.980;2023-03-03T01:17:10;1.60;99.90
52709;DHT22;38606;52.986;6.980;2023-03-03T01:19:36;1.80;99.90
52709;DHT22;38606;52.986;6.980;2023-03-03T01:22:01;1.60;99.90
52709;DHT22;38606;52.986;6.980;2023-03-03T01:24:27;1.60;99.90
52709;DHT22;38606;52.986;6.980;2023-03-03T01:26:53;1.70;99.90
52709;DHT22;38606;52.986;6.980;2023-03-03T01:29:18;1.90;99.90
52709;DHT22;38606;52.986;6.980;2023-03-03T01:31:44;2.40;99.90
52709;DHT22;38606;52.986;6.980;2023-03-03T01:34:09;2.70;99.90
52709;DHT22;38606;52.986;6.980;2023-03-03T01:36:35;2.60;99.90
52709;DHT22;38606;52.986;6.980;2023-03-03T01:39:02;1.60;99.90
52709;DHT22;38606;52.986;6.980;2023-03-03T01:41:28;1.80;99.90
52709;DHT22;38606;52.986;6.980;2023-03-03T01:43:54;1.90;99.90
52709;DHT22;38606;52.986;6.980;2023-03-03T01:48:48;1.60;99.90
52709;DHT22;38606;52.986;6.980;2023-03-03T01:51:17;0.50;99.90
52709;DHT22;38606;52.986;6.980;2023-03-03T01:53:45;2.10;99.90
52709;DHT22;38606;52.986;6.980;2023-03-03T01:56:12;2.80;99.90
52709;DHT22;38606;52.986;6.980;2023-03-03T02:01:30;1.90;99.90
52709;DHT22;38606;52.986;6.980;2023-03-03T02:03:57;2.00;99.90
52709;DHT22;38606;52.986;6.980;2023-03-03T02:06:25;3.20;99.90
52709;DHT22;38606;52.986;6.980;2023-03-03T02:09:03;2.70;99.90
52709;DHT22;38606;52.986;6.980;2023-03-03T02:11:30;1.80;99.90
52709;DHT22;38606;52.986;6.980;2023-03-03T02:13:56;3.10;99.90
52709;DHT22;38606;52.986;6.980;2023-03-03T02:16:22;2.00;99.90
52709;DHT22;38606;52.986;6.980;2023-03-03T02:18:48;2.10;99.90
52709;DHT22;38606;52.986;6.980;2023-03-03T02:21:18;1.80;99.90
52709;DHT22;38606;52.986;6.980;2023-03-03T02:23:48;2.20;99.90
52709;DHT22;38606;52.986;6.980;2023-03-03T02:26:15;3.20;99.90
52709;DHT22;38606;52.986;6.980;2023-03-03T02:28:42;1.90;99.90
52709;DHT22;38606;52.986;6.980;2023-03-03T02:31:08;2.00;99.90
52709;DHT22;38606;52.986;6.980;2023-03-03T02:33:40;2.00;99.90
52709;DHT22;38606;52.986;6.980;2023-03-03T02:36:08;1.90;99.90
52709;DHT22;38606;52.986;6.980;2023-03-03T02:38:36;1.60;99.90
52709;DHT22;38606;52.986;6.980;2023-03-03T02:43:39;2.00;99.90
52709;DHT22;38606;52.986;6.980;2023-03-03T02:46:05;2.20;99.90
52709;DHT22;38606;52.986;6.980;2023-03-03T02:48:31;3.10;99.90
52709;DHT22;38606;52.986;6.980;2023-03-03T02:50:57;2.10;99.90
52709;DHT22;38606;52.986;6.980;2023-03-03T02:53:22;3.20;99.90
52709;DHT22;38606;52.986;6.980;2023-03-03T02:55:48;2.00;99.90
52709;DHT22;38606;52.986;6.980;2023-03-03T02:58:13;3.10;99.90
52709;DHT22;38606;52.986;6.980;2023-03-03T03:00:39;2.00;99.90
52709;DHT22;38606;52.986;6.980;2023-03-03T03:03:05;2.00;99.90
52709;DHT22;38606;52.986;6.980;2023-03-03T03:05:30;2.20;99.90
52709;DHT22;38606;52.986;6.980;2023-03-03T03:07:56;2.20;99.90
52709;DHT22;38606;52.986;6.980;2023-03-03T03:10:21;2.30;99.90
52709;DHT22;38606;52.986;6.980;2023-03-03T03:12:47;2.20;99.90
52709;DHT22;38606;52.986;6.980;2023-03-03T03:15:12;2.00;99.90
52709;DHT22;38606;52.986;6.980;2023-03-03T03:17:40;2.00;99.90
52709;DHT22;38606;52.986;6.980;2023-03-03T03:20:05;3.40;99.90
52709;DHT22;38606;52.986;6.980;2023-03-03T03:22:31;2.20;99.90
52709;DHT22;38606;52.986;6.980;2023-03-03T03:24:57;2.20;99.90
52709;DHT22;38606;52.986;6.980;2023-03-03T03:27:22;2.10;99.90
52709;DHT22;38606;52.986;6.980;2023-03-03T03:29:48;2.00;99.90
52709;DHT22;38606;52.986;6.980;2023-03-03T03:32:14;3.40;99.90
52709;DHT22;38606;52.986;6.980;2023-03-03T03:34:39;2.30;99.90
52709;DHT22;38606;52.986;6.980;2023-03-03T03:37:05;2.20;99.90
52709;DHT22;38606;52.986;6.980;2023-03-03T03:39:30;2.20;99.90
52709;DHT22;38606;52.986;6.980;2023-03-03T03:41:56;2.30;99.90
52709;DHT22;38606;52.986;6.980;2023-03-03T03:44:22;3.30;99.90
52709;DHT22;38606;52.986;6.980;2023-03-03T03:46:49;2.40;99.90
52709;DHT22;38606;52.986;6.980;2023-03-03T03:49:15;2.70;99.90
52709;DHT22;38606;52.986;6.980;2023-03-03T03:51:40;2.20;99.90
52709;DHT22;38606;52.986;6.980;2023-03-03T03:54:06;2.30;99.90
52709;DHT22;38606;52.986;6.980;2023-03-03T03:56:32;2.10;99.90
52709;DHT22;38606;52.986;6.980;2023-03-03T03:58:57;3.00;99.90
52709;DHT22;38606;52.986;6.980;2023-03-03T04:01:25;2.20;99.90
52709;DHT22;38606;52.986;6.980;2023-03-03T04:03:50;2.30;99.90
52709;DHT22;38606;52.986;6.980;2023-03-03T04:06:16;2.20;99.90
52709;DHT22;38606;52.986;6.980;2023-03-03T04:08:42;2.80;99.90
52709;DHT22;38606;52.986;6.980;2023-03-03T04:11:07;3.20;99.90
52709;DHT22;38606;52.986;6.980;2023-03-03T04:13:33;3.20;99.90
52709;DHT22;38606;52.986;6.980;2023-03-03T04:16:02;2.20;99.90
52709;DHT22;38606;52.986;6.980;2023-03-03T04:18:28;2.80;99.90
52709;DHT22;38606;52.986;6.980;2023-03-03T04:20:53;2.80;99.90
52709;DHT22;38606;52.986;6.980;2023-03-03T04:23:19;2.30;99.90
52709;DHT22;38606;52.986;6.980;2023-03-03T04:25:48;3.40;99.90
52709;DHT22;38606;52.986;6.980;2023-03-03T04:28:14;2.20;99.90
52709;DHT22;38606;52.986;6.980;2023-03-03T04:30:40;2.20;99.90
52709;DHT22;38606;52.986;6.980;2023-03-03T04:33:05;2.20;99.90
52709;DHT22;38606;52.986;6.980;2023-03-03T04:35:31;2.90;99.90
52709;DHT22;38606;52.986;6.980;2023-03-03T04:37:56;2.30;99.90
52709;DHT22;38606;52.986;6.980;2023-03-03T04:40:22;2.80;99.90
52709;DHT22;38606;52.986;6.980;2023-03-03T04:42:48;2.40;99.90
52709;DHT22;38606;52.986;6.980;2023-03-03T04:45:13;2.20;99.90
52709;DHT22;38606;52.986;6.980;2023-03-03T04:47:39;2.20;99.90
52709;DHT22;38606;52.986;6.980;2023-03-03T04:50:05;2.40;99.90
52709;DHT22;38606;52.986;6.980;2023-03-03T04:52:30;2.30;99.90
52709;DHT22;38606;52.986;6.980;2023-03-03T04:54:56;2.20;99.90
52709;DHT22;38606;52.986;6.980;2023-03-03T04:57:22;2.10;99.90
52709;DHT22;38606;52.986;6.980;2023-03-03T04:59:47;2.30;99.90
52709;DHT22;38606;52.986;6.980;2023-03-03T05:02:13;2.30;99.90
52709;DHT22;38606;52.986;6.980;2023-03-03T05:04:39;2.30;99.90
52709;DHT22;38606;52.986;6.980;2023-03-03T05:07:04;2.90;99.90
52709;DHT22;38606;52.986;6.980;2023-03-03T05:09:30;2.50;99.90
52709;DHT22;38606;52.986;6.980;2023-03-03T05:11:55;2.50;99.90
52709;DHT22;38606;52.986;6.980;2023-03-03T05:14:21;2.70;99.90
52709;DHT22;38606;52.986;6.980;2023-03-03T05:16:47;2.90;99.90
52709;DHT22;38606;52.986;6.980;2023-03-03T05:19:12;2.40;99.90
52709;DHT22;38606;52.986;6.980;2023-03-03T05:21:38;3.70;99.90
52709;DHT22;38606;52.986;6.980;2023-03-03T05:24:07;2.30;99.90
52709;DHT22;38606;52.986;6.980;2023-03-03T05:26:33;2.10;99.90
52709;DHT22;38606;52.986;6.980;2023-03-03T05:28:58;2.40;99.90
52709;DHT22;38606;52.986;6.980;2023-03-03T05:31:24;2.50;99.90
52709;DHT22;38606;52.986;6.980;2023-03-03T05:33:51;2.40;99.90
52709;DHT22;38606;52.986;6.980;2023-03-03T05:36:17;3.20;99.90
52709;DHT22;38606;52.986;6.980;2023-03-03T05:38:42;2.40;99.90
52709;DHT22;38606;52.986;6.980;2023-03-03T05:41:08;2.20;99.90
52709;DHT22;38606;52.986;6.980;2023-03-03T05:43:34;2.40;99.90
52709;DHT22;38606;52.986;6.980;2023-03-03T05:45:59;2.50;99.90
52709;DHT22;38606;52.986;6.980;2023-03-03T05:48:25;3.60;99.90
52709;DHT22;38606;52.986;6.980;2023-03-03T05:50:51;2.50;99.90
52709;DHT22;38606;52.986;6.980;2023-03-03T05:53:16;2.30;99.90
52709;DHT22;38606;52.986;6.980;2023-03-03T05:55:42;1.60;99.90
52709;DHT22;38606;52.986;6.980;2023-03-03T05:58:08;2.40;99.90
52709;DHT22;38606;52.986;6.980;2023-03-03T06:00:33;2.60;99.90
52709;DHT22;38606;52.986;6.980;2023-03-03T06:02:59;2.60;99.90
52709;DHT22;38606;52.986;6.980;2023-03-03T06:05:25;2.40;99.90
52709;DHT22;38606;52.986;6.980;2023-03-03T06:07:51;2.30;99.90
52709;DHT22;38606;52.986;6.980;2023-03-03T06:10:16;3.40;99.90
52709;DHT22;38606;52.986;6.980;2023-03-03T06:12:42;2.30;99.90
52709;DHT22;38606;52.986;6.980;2023-03-03T06:15:08;2.30;99.90
52709;DHT22;38606;52.986;6.980;2023-03-03T06:17:34;2.30;99.90
52709;DHT22;38606;52.986;6.980;2023-03-03T06:20:00;2.20;99.90
52709;DHT22;38606;52.986;6.980;2023-03-03T06:22:25;2.70;99.90
52709;DHT22;38606;52.986;6.980;2023-03-03T06:24:51;2.80;99.90
52709;DHT22;38606;52.986;6.980;2023-03-03T06:27:17;3.80;99.90
52709;DHT22;38606;52.986;6.980;2023-03-03T06:29:42;2.40;99.90
52709;DHT22;38606;52.986;6.980;2023-03-03T06:32:08;2.30;99.90
52709;DHT22;38606;52.986;6.980;2023-03-03T06:34:34;2.30;99.90
52709;DHT22;38606;52.986;6.980;2023-03-03T06:36:59;2.50;99.90
52709;DHT22;38606;52.986;6.980;2023-03-03T06:39:25;2.50;99.90
52709;DHT22;38606;52.986;6.980;2023-03-03T06:41:50;2.90;99.90
52709;DHT22;38606;52.986;6.980;2023-03-03T06:44:16;2.30;99.90
52709;DHT22;38606;52.986;6.980;2023-03-03T06:46:42;2.60;99.90
52709;DHT22;38606;52.986;6.980;2023-03-03T06:49:07;2.40;99.90
52709;DHT22;38606;52.986;6.980;2023-03-03T06:51:34;3.60;99.90
52709;DHT22;38606;52.986;6.980;2023-03-03T06:54:01;2.30;99.90
52709;DHT22;38606;52.986;6.980;2023-03-03T06:56:26;3.20;99.90
52709;DHT22;38606;52.986;6.980;2023-03-03T06:58:53;2.40;99.90
52709;DHT22;38606;52.986;6.980;2023-03-03T07:01:19;2.30;99.90
52709;DHT22;38606;52.986;6.980;2023-03-03T07:03:44;2.70;99.90
52709;DHT22;38606;52.986;6.980;2023-03-03T07:06:15;3.10;99.90
52709;DHT22;38606;52.986;6.980;2023-03-03T07:08:43;2.20;99.90
52709;DHT22;38606;52.986;6.980;2023-03-03T07:11:10;3.50;99.90
52709;DHT22;38606;52.986;6.980;2023-03-03T07:13:37;3.20;99.90
52709;DHT22;38606;52.986;6.980;2023-03-03T07:16:08;2.30;99.90
52709;DHT22;38606;52.986;6.980;2023-03-03T07:18:42;2.40;99.90
52709;DHT22;38606;52.986;6.980;2023-03-03T07:23:44;2.10;99.90
52709;DHT22;38606;52.986;6.980;2023-03-03T07:26:12;3.20;99.90
52709;DHT22;38606;52.986;6.980;2023-03-03T07:28:39;2.50;99.90
52709;DHT22;38606;52.986;6.980;2023-03-03T07:31:14;2.30;99.90
52709;DHT22;38606;52.986;6.980;2023-03-03T07:33:44;2.30;99.90
52709;DHT22;38606;52.986;6.980;2023-03-03T07:39:34;2.30;99.90
52709;DHT22;38606;52.986;6.980;2023-03-03T07:41:34;2.50;99.90
52709;DHT22;38606;52.986;6.980;2023-03-03T07:44:08;3.50;99.90
52709;DHT22;38606;52.986;6.980;2023-03-03T07:46:43;2.30;99.90
52709;DHT22;38606;52.986;6.980;2023-03-03T07:49:20;2.60;99.90
52709;DHT22;38606;52.986;6.980;2023-03-03T07:51:46;2.40;99.90
52709;DHT22;38606;52.986;6.980;2023-03-03T07:59:42;2.50;99.90
52709;DHT22;38606;52.986;6.980;2023-03-03T08:02:31;3.00;99.90
52709;DHT22;38606;52.986;6.980;2023-03-03T08:04:58;2.70;99.90
52709;DHT22;38606;52.986;6.980;2023-03-03T08:07:24;2.80;99.90
52709;DHT22;38606;52.986;6.980;2023-03-03T08:14:43;2.60;99.90
52709;DHT22;38606;52.986;6.980;2023-03-03T08:17:19;4.60;99.90
52709;DHT22;38606;52.986;6.980;2023-03-03T08:19:45;2.90;99.90
52709;DHT22;38606;52.986;6.980;2023-03-03T08:22:14;3.80;99.90
52709;DHT22;38606;52.986;6.980;2023-03-03T08:24:40;4.30;99.90
52709;DHT22;38606;52.986;6.980;2023-03-03T08:27:06;2.90;99.90
52709;DHT22;38606;52.986;6.980;2023-03-03T08:29:31;4.20;99.90
52709;DHT22;38606;52.986;6.980;2023-03-03T08:31:57;3.10;99.90
52709;DHT22;38606;52.986;6.980;2023-03-03T08:34:22;3.00;99.90
52709;DHT22;38606;52.986;6.980;2023-03-03T08:36:49;4.10;99.90
52709;DHT22;38606;52.986;6.980;2023-03-03T08:39:15;3.20;99.90
52709;DHT22;38606;52.986;6.980;2023-03-03T08:41:40;3.10;99.90
52709;DHT22;38606;52.986;6.980;2023-03-03T08:44:09;4.70;99.90
52709;DHT22;38606;52.986;6.980;2023-03-03T08:46:34;4.40;99.90
52709;DHT22;38606;52.986;6.980;2023-03-03T08:49:00;3.50;99.90
52709;DHT22;38606;52.986;6.980;2023-03-03T08:51:26;3.50;99.90
52709;DHT22;38606;52.986;6.980;2023-03-03T08:53:51;4.70;99.90
52709;DHT22;38606;52.986;6.980;2023-03-03T08:56:17;3.80;99.90
52709;DHT22;38606;52.986;6.980;2023-03-03T08:58:42;3.80;99.90
52709;DHT22;38606;52.986;6.980;2023-03-03T09:01:13;3.70;99.90
52709;DHT22;38606;52.986;6.980;2023-03-03T09:03:40;4.00;99.90
52709;DHT22;38606;52.986;6.980;2023-03-03T09:06:05;4.80;99.90
52709;DHT22;38606;52.986;6.980;2023-03-03T09:08:31;4.20;99.90
52709;DHT22;38606;52.986;6.980;2023-03-03T09:10:56;4.00;99.90
52709;DHT22;38606;52.986;6.980;2023-03-03T09:13:22;4.80;99.90
52709;DHT22;38606;52.986;6.980;2023-03-03T09:15:48;4.00;99.90
52709;DHT22;38606;52.986;6.980;2023-03-03T09:20:47;3.90;99.90
52709;DHT22;38606;52.986;6.980;2023-03-03T09:26:10;4.00;99.90
52709;DHT22;38606;52.986;6.980;2023-03-03T09:28:37;4.50;99.90
52709;DHT22;38606;52.986;6.980;2023-03-03T09:31:05;4.00;99.90
52709;DHT22;38606;52.986;6.980;2023-03-03T09:33:44;3.90;99.90
52709;DHT22;38606;52.986;6.980;2023-03-03T09:38:43;4.10;99.90
52709;DHT22;38606;52.986;6.980;2023-03-03T09:46:25;4.20;99.90
52709;DHT22;38606;52.986;6.980;2023-03-03T09:49:01;4.20;99.90
52709;DHT22;38606;52.986;6.980;2023-03-03T09:54:01;4.10;99.90
52709;DHT22;38606;52.986;6.980;2023-03-03T09:56:31;4.20;99.90
52709;DHT22;38606;52.986;6.980;2023-03-03T09:59:02;4.20;99.90
52709;DHT22;38606;52.986;6.980;2023-03-03T10:01:37;4.40;99.90
52709;DHT22;38606;52.986;6.980;2023-03-03T10:04:09;4.30;99.90
52709;DHT22;38606;52.986;6.980;2023-03-03T10:06:44;5.50;99.90
52709;DHT22;38606;52.986;6.980;2023-03-03T10:22:02;4.50;99.90
52709;DHT22;38606;52.986;6.980;2023-03-03T10:24:35;5.70;99.90
52709;DHT22;38606;52.986;6.980;2023-03-03T10:28:10;4.60;99.90
52709;DHT22;38606;52.986;6.980;2023-03-03T10:30:10;4.70;99.90
52709;DHT22;38606;52.986;6.980;2023-03-03T10:50:35;5.20;99.90
52709;DHT22;38606;52.986;6.980;2023-03-03T10:55:47;5.30;99.90
52709;DHT22;38606;52.986;6.980;2023-03-03T10:58:21;5.20;99.90
52709;DHT22;38606;52.986;6.980;2023-03-03T11:00:56;5.60;99.90
52709;DHT22;38606;52.986;6.980;2023-03-03T11:08:42;5.80;99.90
52709;DHT22;38606;52.986;6.980;2023-03-03T11:11:16;5.70;99.90
52709;DHT22;38606;52.986;6.980;2023-03-03T11:16:20;5.90;99.90
52709;DHT22;38606;52.986;6.980;2023-03-03T11:18:51;6.10;99.90
52709;DHT22;38606;52.986;6.980;2023-03-03T11:24:01;6.10;99.90
52709;DHT22;38606;52.986;6.980;2023-03-03T11:31:48;6.30;99.90
52709;DHT22;38606;52.986;6.980;2023-03-03T11:37:09;6.70;99.90
52709;DHT22;38606;52.986;6.980;2023-03-03T11:39:36;6.80;99.90
52709;DHT22;38606;52.986;6.980;2023-03-03T11:44:33;6.80;99.90
52709;DHT22;38606;52.986;6.980;2023-03-03T11:49:27;8.10;99.90
52709;DHT22;38606;52.986;6.980;2023-03-03T11:54:53;6.90;99.90
52709;DHT22;38606;52.986;6.980;2023-03-03T11:57:28;7.30;99.90
52709;DHT22;38606;52.986;6.980;2023-03-03T12:02:28;7.40;99.90
52709;DHT22;38606;52.986;6.980;2023-03-03T12:05:45;7.50;99.90
52709;DHT22;38606;52.986;6.980;2023-03-03T12:13:01;7.70;99.90
52709;DHT22;38606;52.986;6.980;2023-03-03T12:16:32;9.30;99.90
52709;DHT22;38606;52.986;6.980;2023-03-03T12:28:17;7.70;99.90
52709;DHT22;38606;52.986;6.980;2023-03-03T12:36:00;8.00;99.90
52709;DHT22;38606;52.986;6.980;2023-03-03T12:38:34;8.00;99.90
52709;DHT22;38606;52.986;6.980;2023-03-03T12:41:06;7.80;99.90
52709;DHT22;38606;52.986;6.980;2023-03-03T12:48:45;8.00;99.90
52709;DHT22;38606;52.986;6.980;2023-03-03T12:51:17;7.80;99.90
52709;DHT22;38606;52.986;6.980;2023-03-03T12:54:04;7.90;99.90
52709;DHT22;38606;52.986;6.980;2023-03-03T12:56:34;8.00;99.90
52709;DHT22;38606;52.986;6.980;2023-03-03T12:59:28;7.60;99.90
52709;DHT22;38606;52.986;6.980;2023-03-03T13:07:03;7.70;99.90
52709;DHT22;38606;52.986;6.980;2023-03-03T13:09:39;7.80;99.90
52709;DHT22;38606;52.986;6.980;2023-03-03T13:14:39;7.90;99.90
52709;DHT22;38606;52.986;6.980;2023-03-03T13:19:56;8.00;99.90
52709;DHT22;38606;52.986;6.980;2023-03-03T13:22:30;8.00;99.90
52709;DHT22;38606;52.986;6.980;2023-03-03T13:25:03;7.90;99.90
52709;DHT22;38606;52.986;6.980;2023-03-03T13:27:39;7.80;99.90
52709;DHT22;38606;52.986;6.980;2023-03-03T13:32:46;8.10;99.90
52709;DHT22;38606;52.986;6.980;2023-03-03T13:35:24;8.20;99.90
52709;DHT22;38606;52.986;6.980;2023-03-03T13:37:52;8.00;99.90
52709;DHT22;38606;52.986;6.980;2023-03-03T13:40:21;8.00;99.90
52709;DHT22;38606;52.986;6.980;2023-03-03T13:42:49;8.00;99.90
52709;DHT22;38606;52.986;6.980;2023-03-03T13:45:17;7.30;99.90
52709;DHT22;38606;52.986;6.980;2023-03-03T13:47:49;7.80;99.90
52709;DHT22;38606;52.986;6.980;2023-03-03T13:53:24;8.10;99.90
52709;DHT22;38606;52.986;6.980;2023-03-03T13:58:33;8.30;99.90
52709;DHT22;38606;52.986;6.980;2023-03-03T14:01:03;8.50;99.90
52709;DHT22;38606;52.986;6.980;2023-03-03T14:16:54;8.20;99.90
52709;DHT22;38606;52.986;6.980;2023-03-03T14:19:27;8.10;99.90
52709;DHT22;38606;52.986;6.980;2023-03-03T14:24:21;8.30;99.90
52709;DHT22;38606;52.986;6.980;2023-03-03T14:26:49;8.90;99.90
52709;DHT22;38606;52.986;6.980;2023-03-03T14:31:43;8.40;99.90
52709;DHT22;38606;52.986;6.980;2023-03-03T14:36:38;8.30;99.90
52709;DHT22;38606;52.986;6.980;2023-03-03T14:39:24;8.20;99.90
52709;DHT22;38606;52.986;6.980;2023-03-03T14:41:52;8.40;99.90
52709;DHT22;38606;52.986;6.980;2023-03-03T14:49:34;8.30;99.90
52709;DHT22;38606;52.986;6.980;2023-03-03T14:54:45;8.20;99.90
52709;DHT22;38606;52.986;6.980;2023-03-03T14:57:12;8.80;99.90
52709;DHT22;38606;52.986;6.980;2023-03-03T14:59:39;8.10;99.90
52709;DHT22;38606;52.986;6.980;2023-03-03T15:04:44;8.10;99.90
52709;DHT22;38606;52.986;6.980;2023-03-03T15:07:53;8.10;99.90
52709;DHT22;38606;52.986;6.980;2023-03-03T15:10:00;7.90;99.90
52709;DHT22;38606;52.986;6.980;2023-03-03T15:12:33;8.20;99.90
52709;DHT22;38606;52.986;6.980;2023-03-03T15:28:09;8.10;99.90
52709;DHT22;38606;52.986;6.980;2023-03-03T15:33:01;8.20;99.90
52709;DHT22;38606;52.986;6.980;2023-03-03T15:38:04;7.70;99.90
52709;DHT22;38606;52.986;6.980;2023-03-03T15:40:36;7.90;99.90
52709;DHT22;38606;52.986;6.980;2023-03-03T15:58:35;7.20;99.90
52709;DHT22;38606;52.986;6.980;2023-03-03T16:03:32;7.10;99.90
52709;DHT22;38606;52.986;6.980;2023-03-03T16:06:11;7.10;99.90
52709;DHT22;38606;52.986;6.980;2023-03-03T16:16:35;7.00;99.90
52709;DHT22;38606;52.986;6.980;2023-03-03T16:19:10;6.90;99.90
52709;DHT22;38606;52.986;6.980;2023-03-03T16:21:47;7.00;99.90
52709;DHT22;38606;52.986;6.980;2023-03-03T16:27:12;6.80;99.90
52709;DHT22;38606;52.986;6.980;2023-03-03T16:39:46;6.80;99.90
52709;DHT22;38606;52.986;6.980;2023-03-03T16:42:17;6.70;99.90
52709;DHT22;38606;52.986;6.980;2023-03-03T16:44:48;6.80;99.90
52709;DHT22;38606;52.986;6.980;2023-03-03T16:49:47;6.60;99.90
52709;DHT22;38606;52.986;6.980;2023-03-03T16:52:22;6.50;99.90
52709;DHT22;38606;52.986;6.980;2023-03-03T16:54:56;6.80;99.90
52709;DHT22;38606;52.986;6.980;2023-03-03T17:07:36;6.30;99.90
52709;DHT22;38606;52.986;6.980;2023-03-03T17:20:55;6.50;99.90
52709;DHT22;38606;52.986;6.980;2023-03-03T17:26:00;6.40;99.90
52709;DHT22;38606;52.986;6.980;2023-03-03T17:28:36;6.50;99.90
52709;DHT22;38606;52.986;6.980;2023-03-03T17:36:45;6.50;99.90
52709;DHT22;38606;52.986;6.980;2023-03-03T17:57:10;6.20;99.90
52709;DHT22;38606;52.986;6.980;2023-03-03T17:59:48;6.30;99.90
52709;DHT22;38606;52.986;6.980;2023-03-03T18:02:40;6.40;99.90
52709;DHT22;38606;52.986;6.980;2023-03-03T18:05:21;6.30;99.90
52709;DHT22;38606;52.986;6.980;2023-03-03T18:20:20;6.10;99.90
52709;DHT22;38606;52.986;6.980;2023-03-03T18:22:48;6.10;99.90
52709;DHT22;38606;52.986;6.980;2023-03-03T18:30:50;6.60;99.90
52709;DHT22;38606;52.986;6.980;2023-03-03T18:33:16;6.20;99.90
52709;DHT22;38606;52.986;6.980;2023-03-03T18:36:06;6.20;99.90
52709;DHT22;38606;52.986;6.980;2023-03-03T18:38:34;6.10;99.90
52709;DHT22;38606;52.986;6.980;2023-03-03T18:41:04;6.20;99.90
52709;DHT22;38606;52.986;6.980;2023-03-03T18:43:40;6.10;99.90
52709;DHT22;38606;52.986;6.980;2023-03-03T18:51:10;6.00;99.90
52709;DHT22;38606;52.986;6.980;2023-03-03T18:53:35;6.50;99.90
52709;DHT22;38606;52.986;6.980;2023-03-03T18:56:02;6.10;99.90
52709;DHT22;38606;52.986;6.980;2023-03-03T18:58:29;6.00;99.90
52709;DHT22;38606;52.986;6.980;2023-03-03T19:06:03;6.40;99.90
52709;DHT22;38606;52.986;6.980;2023-03-03T19:10:56;5.90;99.90
52709;DHT22;38606;52.986;6.980;2023-03-03T19:18:30;6.10;99.90
52709;DHT22;38606;52.986;6.980;2023-03-03T19:28:37;5.90;99.90
52709;DHT22;38606;52.986;6.980;2023-03-03T19:31:17;5.90;99.90
52709;DHT22;38606;52.986;6.980;2023-03-03T19:33:51;6.00;99.90
52709;DHT22;38606;52.986;6.980;2023-03-03T19:52:21;5.90;99.90
52709;DHT22;38606;52.986;6.980;2023-03-03T19:59:53;5.90;99.90
52709;DHT22;38606;52.986;6.980;2023-03-03T20:05:15;5.70;99.90
52709;DHT22;38606;52.986;6.980;2023-03-03T20:07:48;5.90;99.90
52709;DHT22;38606;52.986;6.980;2023-03-03T20:15:25;5.70;99.90
52709;DHT22;38606;52.986;6.980;2023-03-03T20:25:39;5.90;99.90
52709;DHT22;38606;52.986;6.980;2023-03-03T20:28:34;5.80;99.90
52709;DHT22;38606;52.986;6.980;2023-03-03T20:33:44;5.80;99.90
52709;DHT22;38606;52.986;6.980;2023-03-03T20:39:07;5.90;99.90
52709;DHT22;38606;52.986;6.980;2023-03-03T20:46:40;5.90;99.90
52709;DHT22;38606;52.986;6.980;2023-03-03T20:59:36;5.90;99.90
52709;DHT22;38606;52.986;6.980;2023-03-03T21:04:33;5.90;99.90
52709;DHT22;38606;52.986;6.980;2023-03-03T21:07:01;5.90;99.90
52709;DHT22;38606;52.986;6.980;2023-03-03T21:09:31;5.80;99.90
52709;DHT22;38606;52.986;6.980;2023-03-03T21:11:57;5.70;99.90
52709;DHT22;38606;52.986;6.980;2023-03-03T21:16:50;6.70;99.90
52709;DHT22;38606;52.986;6.980;2023-03-03T21:19:23;6.50;99.90
52709;DHT22;38606;52.986;6.980;2023-03-03T21:21:50;5.80;99.90
52709;DHT22;38606;52.986;6.980;2023-03-03T21:24:16;6.70;99.90
52709;DHT22;38606;52.986;6.980;2023-03-03T21:26:57;5.80;99.90
52709;DHT22;38606;52.986;6.980;2023-03-03T21:34:18;5.90;99.90
52709;DHT22;38606;52.986;6.980;2023-03-03T21:36:45;5.90;99.90
52709;DHT22;38606;52.986;6.980;2023-03-03T21:44:28;7.00;99.90
52709;DHT22;38606;52.986;6.980;2023-03-03T21:46:53;5.90;99.90
52709;DHT22;38606;52.986;6.980;2023-03-03T21:49:19;5.80;99.90
52709;DHT22;38606;52.986;6.980;2023-03-03T21:51:44;5.90;99.90
52709;DHT22;38606;52.986;6.980;2023-03-03T21:54:10;6.90;99.90
52709;DHT22;38606;52.986;6.980;2023-03-03T21:56:36;5.60;99.90
52709;DHT22;38606;52.986;6.980;2023-03-03T21:59:02;6.20;99.90
52709;DHT22;38606;52.986;6.980;2023-03-03T22:01:27;5.90;99.90
52709;DHT22;38606;52.986;6.980;2023-03-03T22:03:53;5.90;99.90
52709;DHT22;38606;52.986;6.980;2023-03-03T22:06:19;5.90;99.90
52709;DHT22;38606;52.986;6.980;2023-03-03T22:08:44;6.00;99.90
52709;DHT22;38606;52.986;6.980;2023-03-03T22:11:10;5.80;99.90
52709;DHT22;38606;52.986;6.980;2023-03-03T22:13:35;6.60;99.90
52709;DHT22;38606;52.986;6.980;2023-03-03T22:16:04;6.00;99.90
52709;DHT22;38606;52.986;6.980;2023-03-03T22:18:31;5.70;99.90
52709;DHT22;38606;52.986;6.980;2023-03-03T22:20:57;5.90;99.90
52709;DHT22;38606;52.986;6.980;2023-03-03T22:23:23;6.10;99.90
52709;DHT22;38606;52.986;6.980;2023-03-03T22:25:48;5.70;99.90
52709;DHT22;38606;52.986;6.980;2023-03-03T22:28:14;6.10;99.90
52709;DHT22;38606;52.986;6.980;2023-03-03T22:30:39;6.10;99.90
52709;DHT22;38606;52.986;6.980;2023-03-03T22:33:05;6.80;99.90
52709;DHT22;38606;52.986;6.980;2023-03-03T22:35:30;6.10;99.90
52709;DHT22;38606;52.986;6.980;2023-03-03T22:37:56;7.00;99.90
52709;DHT22;38606;52.986;6.980;2023-03-03T22:40:22;7.10;99.90
52709;DHT22;38606;52.986;6.980;2023-03-03T22:42:47;5.80;99.90
52709;DHT22;38606;52.986;6.980;2023-03-03T22:45:13;5.90;99.90